Time;durP1;ratioP1;P1;durP2;ratioP2;P2;SDS_P1;SDS_P2;PMS_P1;PMS_P2;Temp;Humidity;BMP_temperature;BMP_pressure;BME280_temperature;BME280_humidity;BME280_pressure;Samples;Min_cycle;Max_cycle;Signal;HPM_P1;HPM_P2
2023/06/29 00:03:59;;;;;;;46.70;23.10;;;;;;;;;;10494023;22;20098;-90
2023/06/29 00:08:02;;;;;;;48.30;24.52;;;;;;;;;;10493975;22;20019;-90
2023/06/29 00:12:06;;;;;;;42.65;23.08;;;;;;;;;;10493431;22;20086;-90
2023/06/29 00:16:11;;;;;;;44.33;26.17;;;;;;;;;;10491956;22;20038;-91
2023/06/29 00:20:15;;;;;;;39.60;24.60;;;;;;;;;;10492617;22;20088;-91
2023/06/29 00:24:18;;;;;;;37.83;22.40;;;;;;;;;;10492099;22;20082;-91
2023/06/29 00:28:20;;;;;;;46.20;24.08;;;;;;;;;;10465564;22;20018;-91
2023/06/29 00:32:25;;;;;;;44.30;24.17;;;;;;;;;;10493413;22;20097;-90
2023/06/29 00:36:27;;;;;;;48.97;24.75;;;;;;;;;;10492740;22;20019;-90
2023/06/29 00:40:31;;;;;;;49.25;25.58;;;;;;;;;;10493238;22;20090;-93
2023/06/29 00:44:34;;;;;;;56.83;26.38;;;;;;;;;;10493132;22;20016;-90
2023/06/29 00:48:39;;;;;;;54.92;24.58;;;;;;;;;;10491860;22;20023;-91
2023/06/29 00:52:42;;;;;;;35.05;22.90;;;;;;;;;;10492778;22;20095;-90
2023/06/29 00:56:46;;;;;;;39.25;22.58;;;;;;;;;;10493120;22;20026;-91
2023/06/29 01:00:48;;;;;;;38.17;22.15;;;;;;;;;;10492748;22;20014;-90
2023/06/29 01:04:53;;;;;;;36.13;21.05;;;;;;;;;;10465554;22;20026;-91
2023/06/29 01:09:05;;;;;;;37.25;22.35;;;;;;;;;;10464943;22;20021;-92
2023/06/29 01:13:10;;;;;;;48.70;24.98;;;;;;;;;;10464917;22;20022;-90
2023/06/29 01:17:15;;;;;;;51.97;27.42;;;;;;;;;;10492676;22;20027;-90
2023/06/29 01:21:20;;;;;;;50.05;25.00;;;;;;;;;;10510217;22;20018;-91
2023/06/29 01:25:25;;;;;;;50.65;27.73;;;;;;;;;;10492950;22;20027;-91
2023/06/29 01:29:28;;;;;;;50.90;25.40;;;;;;;;;;10491118;22;20064;-91
2023/06/29 01:33:31;;;;;;;50.75;27.13;;;;;;;;;;10463090;22;20025;-91
2023/06/29 01:37:39;;;;;;;43.25;23.55;;;;;;;;;;10491644;22;20023;-90
2023/06/29 01:41:45;;;;;;;44.08;25.25;;;;;;;;;;10509694;22;20042;-90
2023/06/29 01:45:49;;;;;;;51.40;25.98;;;;;;;;;;10509608;22;20021;-90
2023/06/29 01:49:52;;;;;;;45.55;25.83;;;;;;;;;;10492098;22;20022;-90
2023/06/29 01:53:56;;;;;;;49.00;27.30;;;;;;;;;;10492218;22;20042;-89
2023/06/29 01:58:01;;;;;;;48.35;24.95;;;;;;;;;;10491543;22;20019;-90
2023/06/29 02:02:05;;;;;;;51.15;26.58;;;;;;;;;;10507954;22;20025;-90
2023/06/29 02:06:08;;;;;;;43.00;24.60;;;;;;;;;;10491082;22;20050;-90
2023/06/29 02:10:11;;;;;;;48.78;25.00;;;;;;;;;;10491031;22;20019;-91
2023/06/29 02:14:18;;;;;;;41.55;24.20;;;;;;;;;;10490943;22;20037;-89
2023/06/29 02:18:21;;;;;;;43.42;24.85;;;;;;;;;;10508995;22;20019;-90
2023/06/29 02:22:24;;;;;;;46.83;25.27;;;;;;;;;;10491422;22;20019;-90
2023/06/29 02:26:27;;;;;;;47.28;26.08;;;;;;;;;;10491259;22;20094;-90
2023/06/29 02:30:31;;;;;;;47.38;25.02;;;;;;;;;;10491375;22;20018;-89
2023/06/29 02:34:34;;;;;;;40.90;24.48;;;;;;;;;;10491190;22;20096;-89
2023/06/29 02:38:37;;;;;;;35.55;23.17;;;;;;;;;;10491452;22;20022;-89
2023/06/29 02:42:43;;;;;;;42.08;23.45;;;;;;;;;;10491369;22;20061;-90
2023/06/29 02:46:47;;;;;;;41.80;25.30;;;;;;;;;;10490957;22;20090;-89
2023/06/29 02:50:50;;;;;;;43.00;26.00;;;;;;;;;;10491104;22;20057;-90
2023/06/29 02:54:53;;;;;;;41.20;23.98;;;;;;;;;;10491230;22;20482;-89
2023/06/29 02:58:56;;;;;;;47.17;26.30;;;;;;;;;;10491181;22;20015;-89
2023/06/29 03:03:00;;;;;;;37.78;22.50;;;;;;;;;;10491154;22;20541;-90
2023/06/29 03:07:03;;;;;;;38.78;23.92;;;;;;;;;;10490854;22;20093;-90
2023/06/29 03:11:05;;;;;;;38.38;23.08;;;;;;;;;;10463123;22;20038;-90
2023/06/29 03:15:10;;;;;;;35.70;23.05;;;;;;;;;;10491270;22;20049;-89
2023/06/29 03:19:14;;;;;;;37.35;24.60;;;;;;;;;;10492441;22;20068;-90
2023/06/29 03:23:17;;;;;;;35.72;22.13;;;;;;;;;;10492582;22;20392;-90
2023/06/29 03:27:20;;;;;;;29.77;20.15;;;;;;;;;;10491978;22;20446;-90
2023/06/29 03:31:23;;;;;;;31.85;21.45;;;;;;;;;;10491924;22;20098;-90
2023/06/29 03:35:31;;;;;;;32.83;21.80;;;;;;;;;;10509540;22;20049;-90
2023/06/29 03:39:34;;;;;;;33.65;21.55;;;;;;;;;;10493965;22;20648;-90
2023/06/29 03:43:37;;;;;;;29.20;20.00;;;;;;;;;;10490585;22;20015;-90
2023/06/29 03:47:40;;;;;;;30.13;18.75;;;;;;;;;;10490478;22;20391;-90
2023/06/29 03:51:44;;;;;;;24.40;17.73;;;;;;;;;;10490647;22;20436;-90
2023/06/29 03:55:48;;;;;;;30.08;17.75;;;;;;;;;;10490405;22;20019;-90
2023/06/29 03:59:51;;;;;;;26.33;18.42;;;;;;;;;;10490400;22;20021;-90
2023/06/29 04:03:54;;;;;;;24.65;16.55;;;;;;;;;;10490503;22;20402;-90
2023/06/29 04:08:02;;;;;;;24.40;16.73;;;;;;;;;;10490250;22;20046;-90
2023/06/29 04:12:06;;;;;;;23.65;16.58;;;;;;;;;;10490402;22;20447;-89
2023/06/29 04:16:09;;;;;;;23.15;17.15;;;;;;;;;;10490112;22;20042;-90
2023/06/29 04:20:13;;;;;;;21.75;14.35;;;;;;;;;;10490394;22;20347;-90
2023/06/29 04:24:18;;;;;;;19.85;14.00;;;;;;;;;;10490295;22;20022;-90
2023/06/29 04:28:21;;;;;;;18.10;13.95;;;;;;;;;;10490104;22;20459;-90
2023/06/29 04:32:24;;;;;;;18.13;13.77;;;;;;;;;;10490272;22;20496;-89
2023/06/29 04:36:27;;;;;;;18.60;13.10;;;;;;;;;;10489872;22;20089;-89
2023/06/29 04:40:31;;;;;;;18.13;12.95;;;;;;;;;;10490071;22;20014;-90
2023/06/29 04:44:33;;;;;;;18.45;12.20;;;;;;;;;;10463589;22;20022;-89
2023/06/29 04:48:38;;;;;;;17.73;11.68;;;;;;;;;;10493112;22;20018;-89
2023/06/29 04:52:40;;;;;;;15.63;11.07;;;;;;;;;;10488306;22;20610;-88
2023/06/29 04:56:44;;;;;;;12.73;9.57;;;;;;;;;;10460944;22;20447;-89
2023/06/29 05:00:48;;;;;;;14.43;9.57;;;;;;;;;;10488983;22;20050;-89
2023/06/29 05:04:52;;;;;;;10.55;9.02;;;;;;;;;;10491318;22;20019;-89
2023/06/29 05:08:55;;;;;;;13.18;8.45;;;;;;;;;;10492340;22;20080;-88
2023/06/29 05:13:03;;;;;;;12.55;8.07;;;;;;;;;;10489305;22;20701;-89
2023/06/29 05:17:07;;;;;;;14.23;7.75;;;;;;;;;;10463519;22;20030;-88
2023/06/29 05:21:10;;;;;;;11.35;7.55;;;;;;;;;;10491897;22;20015;-89
2023/06/29 05:25:14;;;;;;;9.23;6.60;;;;;;;;;;10492016;22;20037;-88
2023/06/29 05:29:19;;;;;;;9.13;7.15;;;;;;;;;;10491621;22;20431;-88
2023/06/29 05:33:21;;;;;;;9.90;6.75;;;;;;;;;;10490962;22;20022;-89
2023/06/29 05:37:24;;;;;;;8.20;6.13;;;;;;;;;;10491375;22;20014;-89
2023/06/29 05:41:27;;;;;;;9.23;6.25;;;;;;;;;;10489661;22;20047;-91
2023/06/29 05:45:32;;;;;;;8.15;5.40;;;;;;;;;;10490830;22;20014;-89
2023/06/29 05:49:34;;;;;;;8.43;5.68;;;;;;;;;;10491428;22;20022;-89
2023/06/29 05:53:37;;;;;;;10.57;6.00;;;;;;;;;;10492094;22;20019;-89
2023/06/29 05:57:40;;;;;;;6.55;4.75;;;;;;;;;;10464033;22;20015;-88
2023/06/29 06:01:44;;;;;;;7.75;4.90;;;;;;;;;;10491979;22;20015;-88
2023/06/29 06:05:47;;;;;;;7.88;4.40;;;;;;;;;;10491628;22;20049;-88
2023/06/29 06:09:50;;;;;;;7.03;4.78;;;;;;;;;;10491349;22;20015;-88
2023/06/29 06:13:53;;;;;;;6.47;4.32;;;;;;;;;;10491374;22;20022;-89
2023/06/29 06:17:58;;;;;;;9.13;4.53;;;;;;;;;;10508843;22;20017;-88
2023/06/29 06:22:01;;;;;;;10.68;4.82;;;;;;;;;;10491045;22;20075;-88
2023/06/29 06:26:04;;;;;;;7.05;4.60;;;;;;;;;;10489453;22;20446;-89
2023/06/29 06:30:08;;;;;;;8.70;4.72;;;;;;;;;;10488149;22;20014;-89
2023/06/29 06:34:13;;;;;;;11.75;4.03;;;;;;;;;;10488056;22;20531;-89
2023/06/29 06:38:15;;;;;;;6.10;4.30;;;;;;;;;;10488974;22;20022;-89
2023/06/29 06:42:18;;;;;;;6.65;3.90;;;;;;;;;;10491334;22;20014;-88
2023/06/29 06:46:21;;;;;;;10.13;4.35;;;;;;;;;;10491246;22;20030;-87
2023/06/29 06:50:27;;;;;;;8.13;3.95;;;;;;;;;;10491124;22;20014;-89
2023/06/29 06:54:30;;;;;;;10.38;4.35;;;;;;;;;;10508246;22;20026;-89
2023/06/29 06:58:34;;;;;;;10.02;4.45;;;;;;;;;;10491229;22;20018;-88
2023/06/29 07:02:37;;;;;;;6.78;4.43;;;;;;;;;;10491014;22;20019;-88
2023/06/29 07:06:43;;;;;;;6.53;4.47;;;;;;;;;;10490594;22;20019;-89
2023/06/29 07:10:46;;;;;;;7.78;4.70;;;;;;;;;;10463090;22;20022;-88
2023/06/29 07:14:49;;;;;;;7.18;4.38;;;;;;;;;;10490753;22;20019;-89
2023/06/29 07:19:04;;;;;;;8.95;4.60;;;;;;;;;;10490877;22;20042;-88
2023/06/29 07:23:08;;;;;;;7.32;4.25;;;;;;;;;;10508036;22;20037;-88
2023/06/29 07:27:11;;;;;;;6.72;4.90;;;;;;;;;;10490742;22;20022;-87
2023/06/29 07:31:15;;;;;;;8.63;4.95;;;;;;;;;;10490788;22;20014;-88
2023/06/29 07:35:18;;;;;;;6.85;4.50;;;;;;;;;;10490824;22;20023;-88
2023/06/29 07:39:22;;;;;;;7.63;4.80;;;;;;;;;;10491913;22;20053;-88
2023/06/29 07:43:25;;;;;;;7.13;5.45;;;;;;;;;;10462776;22;20102;-88
2023/06/29 07:47:28;;;;;;;10.85;5.60;;;;;;;;;;10490651;22;20015;-88
2023/06/29 07:51:33;;;;;;;9.20;5.05;;;;;;;;;;10490587;22;20436;-88
2023/06/29 07:55:38;;;;;;;9.52;5.75;;;;;;;;;;10490973;22;20390;-88
2023/06/29 07:59:40;;;;;;;7.65;5.50;;;;;;;;;;10490311;22;20038;-88
2023/06/29 08:03:45;;;;;;;9.38;5.78;;;;;;;;;;10490495;22;20018;-88
2023/06/29 08:07:49;;;;;;;7.70;4.75;;;;;;;;;;10490224;22;20019;-90
2023/06/29 08:11:53;;;;;;;7.50;4.82;;;;;;;;;;10490372;22;20015;-88
2023/06/29 08:15:57;;;;;;;8.57;4.95;;;;;;;;;;10490092;22;20019;-89
2023/06/29 08:20:00;;;;;;;7.68;4.70;;;;;;;;;;10492253;22;20018;-88
2023/06/29 08:24:02;;;;;;;8.02;4.88;;;;;;;;;;10465994;22;20347;-88
2023/06/29 08:28:08;;;;;;;8.55;4.70;;;;;;;;;;10493382;22;20022;-88
2023/06/29 08:32:11;;;;;;;9.98;4.57;;;;;;;;;;10464588;22;20558;-88
2023/06/29 08:36:14;;;;;;;8.95;4.88;;;;;;;;;;10491178;22;20014;-88
2023/06/29 08:40:20;;;;;;;10.90;4.75;;;;;;;;;;10491168;22;20060;-88
2023/06/29 08:44:25;;;;;;;6.07;4.50;;;;;;;;;;10508550;22;20050;-88
2023/06/29 08:48:35;;;;;;;6.65;4.45;;;;;;;;;;10462125;22;20534;-88
2023/06/29 08:52:39;;;;;;;5.90;4.10;;;;;;;;;;10462792;22;20053;-88
2023/06/29 08:56:43;;;;;;;47.88;5.72;;;;;;;;;;10490111;22;20021;-89
2023/06/29 09:00:48;;;;;;;7.20;5.10;;;;;;;;;;10491163;22;20048;-88
2023/06/29 09:04:50;;;;;;;8.20;5.35;;;;;;;;;;10492630;22;20068;-88
2023/06/29 09:08:53;;;;;;;8.32;5.13;;;;;;;;;;10460792;22;20393;-89
2023/06/29 09:12:56;;;;;;;8.40;4.70;;;;;;;;;;10490562;22;20366;-90
2023/06/29 09:17:01;;;;;;;7.82;4.75;;;;;;;;;;10489759;22;20015;-87
2023/06/29 09:21:05;;;;;;;8.13;5.43;;;;;;;;;;10460260;22;20018;-88
2023/06/29 09:25:35;;;;;;;9.43;5.13;;;;;;;;;;10486013;22;20399;-90
2023/06/29 09:29:38;;;;;;;9.10;4.75;;;;;;;;;;10502322;22;20541;-89
2023/06/29 09:33:51;;;;;;;9.57;5.03;;;;;;;;;;10458007;22;20022;-88
2023/06/29 09:38:04;;;;;;;6.45;4.50;;;;;;;;;;10409668;22;20097;-89
2023/06/29 09:42:09;;;;;;;7.05;4.68;;;;;;;;;;10194568;22;20109;-89
2023/06/29 09:46:12;;;;;;;8.55;4.80;;;;;;;;;;10176065;23;20465;-90
2023/06/29 09:50:21;;;;;;;6.65;5.25;;;;;;;;;;10175807;23;20028;-90
2023/06/29 09:54:26;;;;;;;13.35;5.43;;;;;;;;;;10175866;23;20436;-88
2023/06/29 09:58:29;;;;;;;7.70;4.90;;;;;;;;;;10175619;23;20457;-88
2023/06/29 10:02:32;;;;;;;8.80;5.07;;;;;;;;;;10175738;23;20510;-89
2023/06/29 10:06:54;;;;;;;6.47;4.53;;;;;;;;;;10176230;23;20347;-90
2023/06/29 10:11:02;;;;;;;6.97;4.78;;;;;;;;;;10149307;23;20354;-88
2023/06/29 10:15:10;;;;;;;7.95;5.07;;;;;;;;;;10176258;23;20070;-87
2023/06/29 10:19:18;;;;;;;8.00;5.10;;;;;;;;;;10194929;23;20334;-87
2023/06/29 10:23:24;;;;;;;7.07;4.32;;;;;;;;;;10196264;23;20018;-87
2023/06/29 10:27:30;;;;;;;7.22;5.10;;;;;;;;;;10197663;23;20605;-86
2023/06/29 10:31:33;;;;;;;7.95;4.78;;;;;;;;;;10197386;23;20104;-86
2023/06/29 10:35:37;;;;;;;9.38;5.15;;;;;;;;;;10181216;23;20350;-86
2023/06/29 10:39:44;;;;;;;6.65;4.85;;;;;;;;;;10183652;23;20428;-86
2023/06/29 10:43:57;;;;;;;8.68;5.40;;;;;;;;;;10244037;23;20197;-86
2023/06/29 10:48:05;;;;;;;7.05;4.80;;;;;;;;;;10244740;23;20021;-86
2023/06/29 10:52:08;;;;;;;9.13;5.03;;;;;;;;;;10245011;23;20017;-86
2023/06/29 10:56:29;;;;;;;24.92;7.13;;;;;;;;;;10230456;23;20045;-86
2023/06/29 11:00:32;;;;;;;10.05;5.55;;;;;;;;;;10246907;23;20027;-85
2023/06/29 11:04:35;;;;;;;6.55;4.43;;;;;;;;;;10230287;23;20562;-86
2023/06/29 11:08:38;;;;;;;6.50;4.13;;;;;;;;;;10229113;23;20017;-86
2023/06/29 11:12:43;;;;;;;7.20;4.47;;;;;;;;;;10230484;23;20024;-87
2023/06/29 11:16:47;;;;;;;6.05;4.28;;;;;;;;;;10230467;23;20021;-87
2023/06/29 11:20:50;;;;;;;10.55;4.45;;;;;;;;;;10230239;23;20433;-86
2023/06/29 11:24:53;;;;;;;6.57;4.40;;;;;;;;;;10229908;23;20100;-86
2023/06/29 11:28:57;;;;;;;8.65;4.40;;;;;;;;;;10227886;23;20056;-86
2023/06/29 11:33:02;;;;;;;7.95;4.32;;;;;;;;;;10226449;23;20459;-86
2023/06/29 11:37:06;;;;;;;6.40;4.13;;;;;;;;;;10226835;23;20021;-87
2023/06/29 11:41:10;;;;;;;12.00;5.40;;;;;;;;;;10228422;23;20017;-87
2023/06/29 11:45:15;;;;;;;16.67;5.50;;;;;;;;;;10228676;23;20048;-87
2023/06/29 11:49:18;;;;;;;31.15;11.63;;;;;;;;;;10245978;23;20014;-87
2023/06/29 11:53:22;;;;;;;5.03;3.85;;;;;;;;;;10206404;23;20317;-87
2023/06/29 11:57:24;;;;;;;7.20;3.80;;;;;;;;;;10235539;23;20095;-86
2023/06/29 12:01:29;;;;;;;5.25;3.88;;;;;;;;;;10234858;23;20071;-87
2023/06/29 12:05:32;;;;;;;5.03;3.55;;;;;;;;;;10234908;23;20021;-87
2023/06/29 12:09:38;;;;;;;6.20;3.75;;;;;;;;;;10235099;23;20493;-87
2023/06/29 12:13:45;;;;;;;9.38;3.65;;;;;;;;;;10251202;23;20024;-86
2023/06/29 12:17:50;;;;;;;11.93;3.90;;;;;;;;;;10251160;23;20066;-87
2023/06/29 12:21:53;;;;;;;6.43;3.50;;;;;;;;;;10251465;23;20021;-87
2023/06/29 12:25:56;;;;;;;5.57;3.90;;;;;;;;;;10235598;23;20017;-86
2023/06/29 12:30:00;;;;;;;5.07;3.30;;;;;;;;;;10234485;23;20020;-86
2023/06/29 12:34:09;;;;;;;6.22;3.80;;;;;;;;;;10245927;22;20031;-86
2023/06/29 12:38:14;;;;;;;5.32;3.63;;;;;;;;;;10284335;23;20092;-86
2023/06/29 12:42:17;;;;;;;5.28;3.90;;;;;;;;;;10234396;23;20465;-86
2023/06/29 12:46:23;;;;;;;5.10;3.50;;;;;;;;;;10240602;23;20017;-86
2023/06/29 12:50:27;;;;;;;5.07;3.80;;;;;;;;;;10258441;23;20342;-86
2023/06/29 12:54:30;;;;;;;7.50;3.65;;;;;;;;;;10233309;23;20017;-86
2023/06/29 12:58:33;;;;;;;6.57;4.10;;;;;;;;;;10232919;23;20027;-86
2023/06/29 13:02:37;;;;;;;7.72;3.60;;;;;;;;;;10229931;23;20318;-86
2023/06/29 13:06:42;;;;;;;5.80;3.70;;;;;;;;;;10230201;23;20017;-86
2023/06/29 13:10:45;;;;;;;6.82;3.70;;;;;;;;;;10228808;23;20017;-86
2023/06/29 13:14:49;;;;;;;8.82;3.78;;;;;;;;;;10229681;23;20029;-86
2023/06/29 13:18:52;;;;;;;4.78;3.63;;;;;;;;;;10230401;23;20024;-86
2023/06/29 13:22:56;;;;;;;5.75;3.75;;;;;;;;;;10231062;23;20126;-86
2023/06/29 13:26:59;;;;;;;8.75;3.67;;;;;;;;;;10230883;23;20025;-87
2023/06/29 13:31:02;;;;;;;5.30;3.80;;;;;;;;;;10230107;23;20083;-88
2023/06/29 13:35:06;;;;;;;4.80;3.60;;;;;;;;;;10230986;23;20021;-86
2023/06/29 13:39:11;;;;;;;4.60;3.53;;;;;;;;;;10231459;23;20024;-88
2023/06/29 13:43:14;;;;;;;6.75;4.10;;;;;;;;;;10230588;23;20441;-87
2023/06/29 13:47:19;;;;;;;7.25;3.85;;;;;;;;;;10231839;23;20341;-87
2023/06/29 13:51:22;;;;;;;5.40;3.80;;;;;;;;;;10247006;23;20048;-87
2023/06/29 13:55:28;;;;;;;7.57;4.05;;;;;;;;;;10230833;23;20031;-87
2023/06/29 13:59:30;;;;;;;5.28;3.92;;;;;;;;;;10204343;23;20062;-87
2023/06/29 14:03:33;;;;;;;6.50;3.90;;;;;;;;;;10230976;23;20055;-87
2023/06/29 14:07:37;;;;;;;5.35;3.80;;;;;;;;;;10227289;23;20024;-87
2023/06/29 14:11:42;;;;;;;5.40;3.45;;;;;;;;;;10197881;23;20025;-89
2023/06/29 14:15:45;;;;;;;9.80;3.72;;;;;;;;;;10223967;23;20322;-88
2023/06/29 14:19:49;;;;;;;8.52;3.50;;;;;;;;;;10225230;23;20452;-88
2023/06/29 14:23:58;;;;;;;5.00;3.35;;;;;;;;;;10198691;23;20354;-89
2023/06/29 14:28:03;;;;;;;7.45;3.85;;;;;;;;;;10199119;23;20036;-88
2023/06/29 14:32:16;;;;;;;7.40;3.45;;;;;;;;;;10262628;22;20026;-88
2023/06/29 14:36:20;;;;;;;4.35;3.38;;;;;;;;;;10485042;22;20019;-89
2023/06/29 14:40:23;;;;;;;4.78;3.25;;;;;;;;;;10485473;22;20334;-87
2023/06/29 14:44:27;;;;;;;9.15;4.30;;;;;;;;;;10485519;22;20018;-88
2023/06/29 14:48:30;;;;;;;8.38;3.65;;;;;;;;;;10485806;22;20029;-88
2023/06/29 14:52:33;;;;;;;6.80;3.70;;;;;;;;;;10484534;22;20504;-88
2023/06/29 14:56:36;;;;;;;6.60;3.80;;;;;;;;;;10485410;22;20022;-88
2023/06/29 15:00:41;;;;;;;5.78;3.67;;;;;;;;;;10485680;22;20073;-88
2023/06/29 15:04:44;;;;;;;5.70;3.65;;;;;;;;;;10485504;22;20014;-89
2023/06/29 15:08:47;;;;;;;8.60;3.55;;;;;;;;;;10486192;22;20447;-89
2023/06/29 15:12:50;;;;;;;6.07;3.45;;;;;;;;;;10485513;22;20050;-88
2023/06/29 15:16:55;;;;;;;6.28;3.30;;;;;;;;;;10484481;22;20057;-89
2023/06/29 15:20:58;;;;;;;7.03;3.83;;;;;;;;;;10485537;22;20462;-87
2023/06/29 15:25:01;;;;;;;8.68;3.97;;;;;;;;;;10485752;22;20053;-88
2023/06/29 15:29:05;;;;;;;6.63;3.58;;;;;;;;;;10469488;22;20023;-88
2023/06/29 15:33:10;;;;;;;5.03;3.65;;;;;;;;;;10272091;22;20464;-87
2023/06/29 15:37:13;;;;;;;6.10;3.20;;;;;;;;;;10273438;23;20028;-87
2023/06/29 15:41:16;;;;;;;8.02;3.40;;;;;;;;;;10272913;23;20118;-92
2023/06/29 15:45:19;;;;;;;5.00;3.00;;;;;;;;;;10272080;23;20069;-88
2023/06/29 15:49:24;;;;;;;4.43;2.80;;;;;;;;;;10272899;23;20382;-89
2023/06/29 15:53:27;;;;;;;5.57;3.20;;;;;;;;;;10273537;23;20027;-88
2023/06/29 15:57:31;;;;;;;8.25;3.50;;;;;;;;;;10273782;23;20027;-88
2023/06/29 16:01:37;;;;;;;7.82;3.80;;;;;;;;;;10273949;23;20021;-88
2023/06/29 16:05:42;;;;;;;8.00;3.60;;;;;;;;;;10289182;23;20024;-89
2023/06/29 16:09:45;;;;;;;7.40;3.60;;;;;;;;;;10272602;23;20044;-88
2023/06/29 16:13:47;;;;;;;6.82;3.30;;;;;;;;;;10272664;22;20021;-87
2023/06/29 16:17:50;;;;;;;6.25;3.58;;;;;;;;;;10272926;23;20047;-89
2023/06/29 16:21:55;;;;;;;7.82;3.42;;;;;;;;;;10272571;23;20572;-88
2023/06/29 16:26:00;;;;;;;7.68;3.90;;;;;;;;;;10274629;23;20445;-88
2023/06/29 16:30:04;;;;;;;7.22;3.90;;;;;;;;;;10290002;23;20028;-88
2023/06/29 16:34:07;;;;;;;7.68;3.55;;;;;;;;;;10272989;23;20712;-90
2023/06/29 16:38:12;;;;;;;6.85;3.70;;;;;;;;;;10273546;23;20024;-88
2023/06/29 16:42:15;;;;;;;7.63;3.38;;;;;;;;;;10274006;23;20021;-89
2023/06/29 16:46:20;;;;;;;6.55;3.40;;;;;;;;;;10249477;23;20022;-87
2023/06/29 16:50:24;;;;;;;7.57;4.72;;;;;;;;;;10273050;23;20093;-88
2023/06/29 16:54:29;;;;;;;6.15;3.50;;;;;;;;;;10275167;23;20024;-91
2023/06/29 16:58:32;;;;;;;11.85;3.38;;;;;;;;;;10274987;23;20021;-88
2023/06/29 17:02:35;;;;;;;5.35;3.50;;;;;;;;;;10274989;23;20666;-88
2023/06/29 17:06:38;;;;;;;7.93;3.50;;;;;;;;;;10275274;22;20020;-87
2023/06/29 17:10:43;;;;;;;7.13;4.25;;;;;;;;;;10275547;23;20027;-87
2023/06/29 17:14:45;;;;;;;11.02;5.72;;;;;;;;;;10274774;23;20345;-88
2023/06/29 17:18:48;;;;;;;6.35;4.70;;;;;;;;;;10274992;23;20401;-89
2023/06/29 17:22:51;;;;;;;6.80;4.35;;;;;;;;;;10248483;22;20040;-88
2023/06/29 17:26:55;;;;;;;8.18;4.55;;;;;;;;;;10275416;23;20419;-87
2023/06/29 17:30:58;;;;;;;7.65;4.25;;;;;;;;;;10275537;23;20437;-88
2023/06/29 17:35:01;;;;;;;10.80;4.07;;;;;;;;;;10270413;23;20028;-92
2023/06/29 17:39:05;;;;;;;7.22;4.80;;;;;;;;;;10272535;23;20023;-88
2023/06/29 17:43:10;;;;;;;10.52;5.65;;;;;;;;;;10274434;23;20112;-92
2023/06/29 17:47:13;;;;;;;7.45;3.88;;;;;;;;;;10248253;23;20109;-88
2023/06/29 17:51:18;;;;;;;5.80;3.97;;;;;;;;;;10274833;22;20337;-87
2023/06/29 17:55:21;;;;;;;8.30;5.90;;;;;;;;;;10275255;23;20754;-89
2023/06/29 17:59:26;;;;;;;8.30;5.10;;;;;;;;;;10248054;23;20024;-89
2023/06/29 18:03:30;;;;;;;7.70;4.00;;;;;;;;;;10292555;23;20023;-89
2023/06/29 18:07:34;;;;;;;5.45;4.38;;;;;;;;;;10279531;23;20028;-88
2023/06/29 18:11:39;;;;;;;6.18;4.13;;;;;;;;;;10279712;23;20441;-88
2023/06/29 18:15:45;;;;;;;6.47;4.05;;;;;;;;;;10280409;22;20371;-91
2023/06/29 18:19:49;;;;;;;6.80;4.07;;;;;;;;;;10279006;23;20080;-90
2023/06/29 18:23:52;;;;;;;7.65;4.50;;;;;;;;;;10279021;23;20437;-89
2023/06/29 18:27:56;;;;;;;9.27;4.50;;;;;;;;;;10279587;23;20017;-88
2023/06/29 18:32:12;;;;;;;6.93;4.13;;;;;;;;;;10278410;23;20024;-92
2023/06/29 18:36:23;;;;;;;6.35;3.88;;;;;;;;;;10296316;23;20341;-89
2023/06/29 18:40:28;;;;;;;5.77;3.80;;;;;;;;;;10253416;23;20104;-89
2023/06/29 18:44:31;;;;;;;6.07;4.20;;;;;;;;;;10279173;23;20040;-89
2023/06/29 18:48:38;;;;;;;9.07;4.30;;;;;;;;;;10279735;23;20017;-92
2023/06/29 18:52:42;;;;;;;6.22;4.00;;;;;;;;;;10254228;23;20184;-89
2023/06/29 18:56:46;;;;;;;7.05;4.25;;;;;;;;;;10279516;23;20016;-88
2023/06/29 19:00:50;;;;;;;7.18;4.53;;;;;;;;;;10279104;23;20020;-87
2023/06/29 19:04:55;;;;;;;6.55;4.40;;;;;;;;;;10279628;23;20054;-89
2023/06/29 19:08:58;;;;;;;6.60;4.40;;;;;;;;;;10279902;22;20027;-88
2023/06/29 19:13:01;;;;;;;6.97;4.90;;;;;;;;;;10280059;23;20107;-89
2023/06/29 19:17:05;;;;;;;6.55;4.57;;;;;;;;;;10279865;23;20021;-88
2023/06/29 19:21:10;;;;;;;9.70;5.20;;;;;;;;;;10279939;23;20058;-88
2023/06/29 19:25:13;;;;;;;8.90;5.15;;;;;;;;;;10279745;23;20027;-88
2023/06/29 19:29:17;;;;;;;8.77;5.63;;;;;;;;;;10280440;23;20463;-88
2023/06/29 19:33:21;;;;;;;8.35;5.45;;;;;;;;;;10279520;23;20020;-88
2023/06/29 19:37:29;;;;;;;9.60;5.80;;;;;;;;;;10279591;23;20028;-88
2023/06/29 19:41:33;;;;;;;9.57;5.80;;;;;;;;;;10400703;22;20091;-89
2023/06/29 19:45:36;;;;;;;8.45;6.43;;;;;;;;;;10280118;23;20437;-88
2023/06/29 19:49:40;;;;;;;10.13;6.30;;;;;;;;;;10253222;23;20047;-88
2023/06/29 19:53:47;;;;;;;9.57;6.60;;;;;;;;;;10279344;23;20016;-88
2023/06/29 19:57:51;;;;;;;11.00;7.10;;;;;;;;;;10279172;23;20028;-88
2023/06/29 20:01:57;;;;;;;10.73;7.68;;;;;;;;;;10279255;23;20021;-88
2023/06/29 20:06:01;;;;;;;9.75;7.00;;;;;;;;;;10384565;22;20020;-88
2023/06/29 20:10:10;;;;;;;9.88;7.50;;;;;;;;;;10252973;23;20017;-88
2023/06/29 20:14:14;;;;;;;11.52;8.02;;;;;;;;;;10253451;23;20024;-88
2023/06/29 20:18:19;;;;;;;12.85;7.60;;;;;;;;;;10281292;23;20017;-86
2023/06/29 20:22:23;;;;;;;12.88;7.68;;;;;;;;;;10283889;23;20020;-89
2023/06/29 20:26:30;;;;;;;15.40;7.63;;;;;;;;;;10283446;23;20028;-88
2023/06/29 20:30:34;;;;;;;12.98;8.65;;;;;;;;;;10300724;23;20028;-90
2023/06/29 20:34:38;;;;;;;11.65;8.55;;;;;;;;;;10280535;23;20441;-89
2023/06/29 20:38:42;;;;;;;13.57;9.10;;;;;;;;;;10280879;23;20044;-88
2023/06/29 20:42:47;;;;;;;11.85;8.02;;;;;;;;;;10281113;23;20027;-88
2023/06/29 20:46:50;;;;;;;13.52;8.35;;;;;;;;;;10280777;23;20017;-88
2023/06/29 20:50:54;;;;;;;13.98;8.50;;;;;;;;;;10280994;23;20024;-88
2023/06/29 20:55:00;;;;;;;13.10;9.20;;;;;;;;;;10281038;23;20020;-89
2023/06/29 20:59:08;;;;;;;13.98;8.98;;;;;;;;;;10255125;23;20021;-89
2023/06/29 21:03:11;;;;;;;15.00;9.93;;;;;;;;;;10255027;23;20027;-89
2023/06/29 21:07:17;;;;;;;11.82;8.95;;;;;;;;;;10280652;23;20029;-88
2023/06/29 21:11:20;;;;;;;12.07;9.15;;;;;;;;;;10254512;22;20021;-89
2023/06/29 21:15:28;;;;;;;15.63;9.00;;;;;;;;;;10280936;23;20407;-90
2023/06/29 21:19:32;;;;;;;10.88;8.45;;;;;;;;;;10255004;23;20023;-88
2023/06/29 21:23:36;;;;;;;13.38;9.10;;;;;;;;;;10254495;22;20039;-89
2023/06/29 21:27:40;;;;;;;13.02;9.25;;;;;;;;;;10280474;23;20432;-87
2023/06/29 21:31:46;;;;;;;16.88;9.30;;;;;;;;;;10280445;23;20691;-89
2023/06/29 21:35:50;;;;;;;12.52;9.07;;;;;;;;;;10297395;23;20016;-89
2023/06/29 21:39:53;;;;;;;17.27;10.25;;;;;;;;;;10280763;23;20024;-89
2023/06/29 21:43:56;;;;;;;13.23;10.10;;;;;;;;;;10280670;23;20028;-90
2023/06/29 21:48:01;;;;;;;15.60;10.38;;;;;;;;;;10254633;23;20021;-88
2023/06/29 21:52:08;;;;;;;12.43;9.13;;;;;;;;;;10280610;23;20461;-88
2023/06/29 21:56:14;;;;;;;12.50;9.32;;;;;;;;;;10386284;22;20028;-89
2023/06/29 22:00:18;;;;;;;15.85;9.63;;;;;;;;;;10254288;23;20066;-89
2023/06/29 22:04:22;;;;;;;12.57;9.20;;;;;;;;;;10253758;23;20069;-89
2023/06/29 22:08:27;;;;;;;13.15;9.63;;;;;;;;;;10280370;23;20021;-89
2023/06/29 22:12:29;;;;;;;12.80;9.75;;;;;;;;;;10280158;23;20017;-88
2023/06/29 22:16:36;;;;;;;15.27;10.88;;;;;;;;;;10280660;22;20445;-89
2023/06/29 22:20:42;;;;;;;13.27;9.77;;;;;;;;;;10296805;23;20040;-88
2023/06/29 22:24:45;;;;;;;15.18;10.40;;;;;;;;;;10296949;23;20025;-89
2023/06/29 22:28:48;;;;;;;14.40;10.85;;;;;;;;;;10279628;23;20077;-88
2023/06/29 22:32:51;;;;;;;18.75;11.00;;;;;;;;;;10280240;23;20337;-88
2023/06/29 22:37:00;;;;;;;16.17;10.23;;;;;;;;;;10252923;23;20029;-90
2023/06/29 22:41:07;;;;;;;15.25;10.35;;;;;;;;;;10296830;23;20046;-88
2023/06/29 22:45:12;;;;;;;15.50;10.90;;;;;;;;;;10254299;23;20048;-89
2023/06/29 22:49:14;;;;;;;15.95;10.65;;;;;;;;;;10280030;23;20025;-89
2023/06/29 22:53:19;;;;;;;17.70;11.98;;;;;;;;;;10280108;23;20043;-89
2023/06/29 22:57:23;;;;;;;16.38;10.65;;;;;;;;;;10279978;23;20040;-89
2023/06/29 23:01:26;;;;;;;15.88;10.98;;;;;;;;;;10253886;23;20016;-89
2023/06/29 23:05:29;;;;;;;16.40;10.68;;;;;;;;;;10279353;23;20091;-90
2023/06/29 23:09:33;;;;;;;16.23;10.52;;;;;;;;;;10279057;23;20528;-90
2023/06/29 23:13:40;;;;;;;15.73;10.82;;;;;;;;;;10279247;23;20043;-91
2023/06/29 23:17:43;;;;;;;18.33;11.77;;;;;;;;;;10296528;23;20020;-90
2023/06/29 23:21:46;;;;;;;14.90;10.70;;;;;;;;;;10279445;23;20052;-90
2023/06/29 23:25:50;;;;;;;14.32;10.15;;;;;;;;;;10279583;23;20021;-89
2023/06/29 23:29:54;;;;;;;15.73;9.82;;;;;;;;;;10279197;23;20024;-90
2023/06/29 23:34:00;;;;;;;14.68;9.73;;;;;;;;;;10278507;23;20024;-90
2023/06/29 23:38:03;;;;;;;13.27;9.75;;;;;;;;;;10253671;23;20017;-91
2023/06/29 23:42:10;;;;;;;14.70;10.05;;;;;;;;;;10381847;22;20015;-89
2023/06/29 23:46:15;;;;;;;14.05;9.30;;;;;;;;;;10507855;22;20019;-89
2023/06/29 23:50:27;;;;;;;15.77;9.35;;;;;;;;;;10489961;22;20015;-90